createdAt,value
2022-08-16T00:00:04.484Z,13.40
2022-08-16T00:00:58.398Z,14.00
2022-08-16T00:01:34.110Z,13.60
2022-08-16T00:02:13.196Z,13.80
2022-08-16T00:02:46.956Z,15.50
2022-08-16T00:03:20.989Z,15.40
2022-08-16T00:03:56.990Z,18.30
2022-08-16T00:04:31.113Z,14.00
2022-08-16T00:05:07.557Z,14.50
2022-08-16T00:05:48.522Z,13.50
2022-08-16T00:06:23.123Z,14.40
2022-08-16T00:06:56.912Z,12.10
2022-08-16T00:07:30.610Z,15.20
2022-08-16T00:08:05.028Z,12.70
2022-08-16T00:08:38.839Z,14.10
2022-08-16T00:09:12.595Z,13.20
2022-08-16T00:09:47.458Z,16.10
2022-08-16T00:10:24.350Z,13.20
2022-08-16T00:10:58.370Z,17.00
2022-08-16T00:11:31.763Z,13.70
2022-08-16T00:12:05.718Z,16.00
2022-08-16T00:12:42.501Z,13.10
2022-08-16T00:13:20.629Z,14.10
2022-08-16T00:13:55.463Z,14.80
2022-08-16T00:14:32.299Z,14.50
2022-08-16T00:15:11.636Z,15.40
2022-08-16T00:15:51.726Z,14.30
2022-08-16T00:17:06.250Z,13.90
2022-08-16T00:17:26.775Z,14.00
2022-08-16T00:18:01.539Z,14.70
2022-08-16T00:18:35.014Z,15.50
2022-08-16T00:19:10.270Z,14.60
2022-08-16T00:19:48.961Z,15.50
2022-08-16T00:20:27.028Z,15.00
2022-08-16T00:21:00.343Z,15.00
2022-08-16T00:21:35.486Z,15.00
2022-08-16T00:22:13.028Z,14.70
2022-08-16T00:22:49.181Z,15.50
2022-08-16T00:23:34.752Z,14.90
2022-08-16T00:24:31.349Z,16.40
2022-08-16T00:25:15.007Z,18.10
2022-08-16T00:26:33.664Z,17.30
2022-08-16T00:26:44.027Z,14.10
2022-08-16T00:27:17.757Z,13.80
2022-08-16T00:27:51.756Z,14.60
2022-08-16T00:28:28.596Z,15.90
2022-08-16T00:29:04.422Z,15.10
2022-08-16T00:29:38.478Z,16.20
2022-08-16T00:30:19.373Z,13.80
2022-08-16T00:30:53.156Z,15.00
2022-08-16T00:31:26.758Z,15.90
2022-08-16T00:32:20.050Z,17.30
2022-08-16T00:32:57.189Z,15.10
2022-08-16T00:33:30.773Z,16.10
2022-08-16T00:34:04.714Z,15.60
2022-08-16T00:34:45.131Z,15.10
2022-08-16T00:35:34.974Z,15.50
2022-08-16T00:36:09.211Z,15.40
2022-08-16T00:36:47.042Z,18.10
2022-08-16T00:37:58.602Z,16.70
2022-08-16T00:38:41.193Z,14.70
2022-08-16T00:39:17.514Z,15.70
2022-08-16T00:39:58.307Z,15.70
2022-08-16T00:40:50.873Z,15.80
2022-08-16T00:41:29.689Z,14.70
2022-08-16T00:42:03.855Z,14.10
2022-08-16T00:42:43.507Z,14.00
2022-08-16T00:43:42.755Z,14.20
2022-08-16T00:44:21.125Z,14.00
2022-08-16T00:44:56.863Z,13.20
2022-08-16T00:46:00.043Z,14.60
2022-08-16T00:47:06.353Z,17.50
2022-08-16T00:47:49.106Z,14.30
2022-08-16T00:48:30.539Z,14.70
2022-08-16T00:49:18.718Z,13.60
2022-08-16T00:49:56.564Z,16.80
2022-08-16T00:50:36.012Z,14.70
2022-08-16T00:51:09.679Z,19.40
2022-08-16T00:51:54.803Z,14.80
2022-08-16T00:52:30.202Z,13.70
2022-08-16T00:53:10.233Z,15.00
2022-08-16T00:53:44.359Z,15.70
2022-08-16T00:54:17.601Z,16.00
2022-08-16T00:54:54.999Z,15.80
2022-08-16T00:55:37.939Z,17.30
2022-08-16T00:56:56.224Z,16.70
2022-08-16T00:57:09.927Z,14.60
2022-08-16T00:57:58.605Z,16.60
2022-08-16T00:58:36.465Z,16.20
2022-08-16T00:59:15.041Z,55.30
2022-08-16T00:59:58.851Z,16.90
2022-08-16T01:00:33.763Z,16.00
2022-08-16T01:01:08.824Z,15.40
2022-08-16T01:01:45.564Z,16.30
2022-08-16T01:02:30.952Z,16.40
2022-08-16T01:03:12.790Z,15.50
2022-08-16T01:03:49.982Z,18.20
2022-08-16T01:04:30.022Z,19.60
2022-08-16T01:05:09.595Z,15.70
2022-08-16T01:05:46.583Z,15.80
2022-08-16T01:06:39.605Z,15.50
2022-08-16T01:07:17.934Z,14.60
2022-08-16T01:07:53.269Z,13.40
2022-08-16T01:08:36.461Z,14.20
2022-08-16T01:09:10.351Z,13.20
2022-08-16T01:09:43.990Z,13.30
2022-08-16T01:10:17.432Z,13.10
2022-08-16T01:10:51.190Z,13.70
2022-08-16T01:11:26.372Z,12.10
2022-08-16T01:12:01.067Z,12.50
2022-08-16T01:12:34.183Z,12.60
2022-08-16T01:13:12.193Z,13.40
2022-08-16T01:14:31.637Z,13.10
2022-08-16T01:15:06.535Z,13.30
2022-08-16T01:16:04.091Z,13.30
2022-08-16T01:16:46.855Z,13.90
2022-08-16T01:17:24.268Z,13.80
2022-08-16T01:17:58.574Z,15.10
2022-08-16T01:18:57.704Z,18.10
2022-08-16T01:19:43.032Z,18.90
2022-08-16T01:20:24.358Z,14.60
2022-08-16T01:21:22.135Z,18.30
2022-08-16T01:22:48.559Z,16.50
2022-08-16T01:23:08.433Z,15.40
2022-08-16T01:24:52.760Z,15.50
2022-08-16T01:25:13.043Z,19.50
2022-08-16T01:25:58.181Z,15.90
2022-08-16T01:26:45.288Z,16.40
2022-08-16T01:27:34.503Z,16.30
2022-08-16T01:28:19.831Z,15.90
2022-08-16T01:28:54.886Z,14.90
2022-08-16T01:29:57.912Z,18.20
2022-08-16T01:30:40.230Z,18.00
2022-08-16T01:31:31.067Z,15.00
2022-08-16T01:32:04.958Z,17.80
2022-08-16T01:32:44.039Z,15.50
2022-08-16T01:33:36.017Z,16.10
2022-08-16T01:34:09.936Z,18.10
2022-08-16T01:34:58.881Z,17.30
2022-08-16T01:35:40.181Z,16.50
2022-08-16T01:36:15.495Z,20.20
2022-08-16T01:37:03.089Z,19.00
2022-08-16T01:37:42.706Z,18.10
2022-08-16T01:38:28.185Z,16.70
2022-08-16T01:39:11.785Z,18.70
2022-08-16T01:39:46.439Z,17.90
2022-08-16T01:40:24.225Z,17.00
2022-08-16T01:41:07.676Z,17.20
2022-08-16T01:41:44.206Z,17.10
2022-08-16T01:42:17.906Z,17.70
2022-08-16T01:42:55.574Z,19.10
2022-08-16T01:43:31.127Z,16.40
2022-08-16T01:44:04.902Z,18.10
2022-08-16T01:44:40.649Z,15.10
2022-08-16T01:45:15.751Z,14.90
2022-08-16T01:45:58.313Z,15.70
2022-08-16T01:46:39.873Z,16.30
2022-08-16T01:47:13.916Z,16.80
2022-08-16T01:47:52.582Z,21.90
2022-08-16T01:48:31.273Z,15.50
2022-08-16T01:49:19.230Z,15.90
2022-08-16T01:50:42.837Z,16.50
2022-08-16T01:51:09.240Z,15.60
2022-08-16T01:51:41.695Z,15.20
2022-08-16T01:52:28.283Z,17.60
2022-08-16T01:53:03.864Z,13.60
2022-08-16T01:53:40.700Z,18.80
2022-08-16T01:54:15.992Z,13.30
2022-08-16T01:54:49.403Z,14.40
2022-08-16T01:55:26.727Z,14.30
2022-08-16T01:56:23.130Z,13.20
2022-08-16T01:56:58.987Z,13.70
2022-08-16T01:57:32.889Z,14.40
2022-08-16T01:58:10.834Z,15.70
2022-08-16T01:58:47.859Z,15.90
2022-08-16T01:59:22.690Z,25.70
2022-08-16T01:59:56.922Z,17.70
2022-08-16T02:00:30.203Z,19.50
2022-08-16T02:01:03.483Z,19.50
2022-08-16T02:01:37.190Z,22.90
2022-08-16T02:02:27.503Z,21.20
2022-08-16T02:03:02.757Z,27.20
2022-08-16T02:03:36.054Z,22.80
2022-08-16T02:04:13.409Z,21.60
2022-08-16T02:05:06.799Z,24.60
2022-08-16T02:05:51.746Z,22.20
2022-08-16T02:06:34.620Z,27.20
2022-08-16T02:07:13.475Z,27.00
2022-08-16T02:07:46.668Z,21.00
2022-08-16T02:08:33.617Z,21.00
2022-08-16T02:09:11.874Z,23.60
2022-08-16T02:09:57.023Z,20.30
2022-08-16T02:10:34.303Z,20.30
2022-08-16T02:11:09.157Z,18.20
2022-08-16T02:11:48.595Z,17.60
2022-08-16T02:12:50.823Z,18.60
2022-08-16T02:13:22.409Z,16.10
2022-08-16T02:14:01.027Z,17.80
2022-08-16T02:14:37.445Z,18.80
2022-08-16T02:15:11.613Z,17.60
2022-08-16T02:15:45.466Z,17.50
2022-08-16T02:16:19.904Z,17.20
2022-08-16T02:16:52.990Z,20.00
2022-08-16T02:17:28.534Z,18.10
2022-08-16T02:18:03.105Z,18.80
2022-08-16T02:18:36.434Z,18.10
2022-08-16T02:19:16.214Z,19.50
2022-08-16T02:19:58.839Z,21.00
2022-08-16T02:20:39.447Z,19.40
2022-08-16T02:21:17.241Z,19.80
2022-08-16T02:22:08.345Z,17.40
2022-08-16T02:23:05.635Z,17.40
2022-08-16T02:23:41.497Z,16.10
2022-08-16T02:24:30.775Z,15.30
2022-08-16T02:25:11.055Z,15.40
2022-08-16T02:25:52.280Z,15.00
2022-08-16T02:26:27.648Z,16.50
2022-08-16T02:27:08.060Z,15.30
2022-08-16T02:27:43.615Z,14.80
2022-08-16T02:28:19.334Z,18.90
2022-08-16T02:28:52.864Z,15.50
2022-08-16T02:29:31.956Z,16.60
2022-08-16T02:30:09.158Z,18.40
2022-08-16T02:30:44.286Z,16.80
2022-08-16T02:32:03.434Z,19.70
2022-08-16T02:32:49.829Z,19.20
2022-08-16T02:33:12.782Z,16.90
2022-08-16T02:33:50.607Z,17.00
2022-08-16T02:34:34.686Z,23.40
2022-08-16T02:35:14.558Z,20.10
2022-08-16T02:35:55.277Z,19.50
2022-08-16T02:36:49.728Z,24.40
2022-08-16T02:37:24.799Z,20.70
2022-08-16T02:38:18.590Z,23.20
2022-08-16T02:38:52.919Z,20.20
2022-08-16T02:39:26.578Z,20.30
2022-08-16T02:40:06.240Z,20.80
2022-08-16T02:40:40.402Z,22.80
2022-08-16T02:41:15.607Z,22.20
2022-08-16T02:41:53.631Z,20.10
2022-08-16T02:42:27.885Z,19.90
2022-08-16T02:43:01.042Z,19.80
2022-08-16T02:43:37.784Z,18.20
2022-08-16T02:44:13.916Z,18.90
2022-08-16T02:44:47.532Z,21.50
2022-08-16T02:45:27.890Z,18.30
2022-08-16T02:46:02.642Z,17.60
2022-08-16T02:46:50.456Z,17.30
2022-08-16T02:47:27.266Z,19.20
2022-08-16T02:48:29.133Z,18.20
2022-08-16T02:48:54.078Z,18.90
2022-08-16T02:49:32.256Z,16.90
2022-08-16T02:50:55.226Z,18.50
2022-08-16T02:51:16.027Z,17.30
2022-08-16T02:51:50.144Z,20.60
2022-08-16T02:52:29.185Z,20.00
2022-08-16T02:53:03.605Z,18.10
2022-08-16T02:53:40.305Z,19.00
2022-08-16T02:54:16.774Z,21.70
2022-08-16T02:54:55.296Z,21.70
2022-08-16T02:55:41.290Z,20.90
2022-08-16T02:56:18.404Z,20.90
2022-08-16T02:56:51.590Z,19.40
2022-08-16T02:57:27.550Z,20.20
2022-08-16T02:58:01.668Z,21.50
2022-08-16T02:58:35.126Z,19.90
2022-08-16T02:59:11.730Z,17.90
2022-08-16T02:59:47.739Z,18.50
2022-08-16T03:00:34.744Z,18.80
2022-08-16T03:01:24.014Z,18.20
2022-08-16T03:01:57.668Z,19.90
2022-08-16T03:02:32.099Z,18.90
2022-08-16T03:03:05.922Z,17.90
2022-08-16T03:04:39.614Z,23.60
2022-08-16T03:04:52.243Z,17.50
2022-08-16T03:05:30.899Z,17.80
2022-08-16T03:06:05.295Z,19.10
2022-08-16T03:06:58.410Z,18.30
2022-08-16T03:07:37.197Z,23.00
2022-08-16T03:08:52.625Z,18.70
2022-08-16T03:09:05.332Z,19.50
2022-08-16T03:09:39.096Z,18.70
2022-08-16T03:10:12.745Z,17.40
2022-08-16T03:10:49.985Z,17.70
2022-08-16T03:11:27.140Z,22.30
2022-08-16T03:12:08.871Z,19.00
2022-08-16T03:12:55.385Z,18.20
2022-08-16T03:13:30.124Z,19.20
2022-08-16T03:14:12.658Z,18.10
2022-08-16T03:14:47.154Z,18.20
2022-08-16T03:15:20.573Z,17.80
2022-08-16T03:15:58.640Z,21.00
2022-08-16T03:16:33.038Z,21.40
2022-08-16T03:17:11.750Z,20.70
2022-08-16T03:17:53.229Z,20.50
2022-08-16T03:18:34.298Z,19.70
2022-08-16T03:19:48.102Z,20.00
2022-08-16T03:20:34.320Z,17.10
2022-08-16T03:21:10.007Z,19.10
2022-08-16T03:21:44.228Z,21.10
2022-08-16T03:22:18.890Z,19.10
2022-08-16T03:22:53.062Z,18.90
2022-08-16T03:23:35.582Z,19.10
2022-08-16T03:24:28.969Z,19.50
2022-08-16T03:25:08.671Z,18.50
2022-08-16T03:25:44.885Z,19.40
2022-08-16T03:26:21.882Z,21.00
2022-08-16T03:27:03.160Z,20.10
2022-08-16T03:27:40.998Z,20.10
2022-08-16T03:28:17.088Z,20.20
2022-08-16T03:28:50.635Z,21.00
2022-08-16T03:29:30.137Z,20.10
2022-08-16T03:30:16.236Z,27.30
2022-08-16T03:30:50.855Z,19.90
2022-08-16T03:31:25.565Z,20.80
2022-08-16T03:32:08.193Z,19.60
2022-08-16T03:32:41.791Z,20.30
2022-08-16T03:33:17.136Z,20.60
2022-08-16T03:33:52.142Z,20.00
2022-08-16T03:34:25.638Z,20.70
2022-08-16T03:34:58.994Z,21.70
2022-08-16T03:35:34.882Z,20.10
2022-08-16T03:36:29.970Z,20.40
2022-08-16T03:37:04.152Z,23.20
2022-08-16T03:38:02.646Z,20.80
2022-08-16T03:38:37.214Z,19.70
2022-08-16T03:39:14.806Z,20.50
2022-08-16T03:39:56.780Z,21.00
2022-08-16T03:40:37.885Z,20.60
2022-08-16T03:41:14.321Z,22.10
2022-08-16T03:41:59.825Z,20.70
2022-08-16T03:42:34.341Z,20.20
2022-08-16T03:43:51.255Z,20.10
2022-08-16T03:44:43.758Z,22.80
2022-08-16T03:45:16.263Z,24.30
2022-08-16T03:45:54.040Z,23.50
2022-08-16T03:46:47.259Z,26.10
2022-08-16T03:47:20.516Z,19.90
2022-08-16T03:47:59.738Z,23.40
2022-08-16T03:48:36.551Z,19.20
2022-08-16T03:49:12.631Z,20.10
2022-08-16T03:49:51.916Z,19.50
2022-08-16T03:50:26.895Z,19.60
2022-08-16T03:51:02.611Z,18.00
2022-08-16T03:51:41.102Z,20.30
2022-08-16T03:52:14.512Z,19.60
2022-08-16T03:52:50.019Z,18.40
2022-08-16T03:53:23.869Z,19.50
2022-08-16T03:54:12.388Z,18.00
2022-08-16T03:54:58.162Z,19.90
2022-08-16T03:55:45.176Z,20.10
2022-08-16T03:56:20.925Z,18.90
2022-08-16T03:56:56.865Z,21.60
2022-08-16T03:57:35.714Z,23.80
2022-08-16T03:58:10.037Z,22.00
2022-08-16T03:58:44.553Z,21.60
2022-08-16T03:59:17.904Z,24.10
2022-08-16T03:59:51.357Z,20.90
2022-08-16T04:00:35.868Z,20.10
2022-08-16T04:01:14.205Z,19.70
2022-08-16T04:01:49.494Z,19.30
2022-08-16T04:02:31.708Z,19.90
2022-08-16T04:03:09.141Z,20.30
2022-08-16T04:03:42.916Z,18.60
2022-08-16T04:04:32.278Z,21.40
2022-08-16T04:05:07.836Z,30.70
2022-08-16T04:05:48.940Z,23.00
2022-08-16T04:06:22.274Z,29.60
2022-08-16T04:06:55.418Z,25.60
2022-08-16T04:07:29.192Z,30.50
2022-08-16T04:08:23.775Z,30.90
2022-08-16T04:08:58.270Z,24.70
2022-08-16T04:09:35.558Z,25.50
2022-08-16T04:10:36.429Z,24.40
2022-08-16T04:11:07.171Z,22.50
2022-08-16T04:11:40.558Z,24.80
2022-08-16T04:12:52.315Z,24.40
2022-08-16T04:13:20.984Z,22.70
2022-08-16T04:14:31.107Z,23.60
2022-08-16T04:14:54.612Z,27.80
2022-08-16T04:15:29.733Z,27.90
2022-08-16T04:16:03.582Z,32.20
2022-08-16T04:16:39.975Z,29.00
2022-08-16T04:17:15.846Z,27.10
2022-08-16T04:17:50.246Z,26.60
2022-08-16T04:18:24.321Z,27.40
2022-08-16T04:19:02.071Z,24.20
2022-08-16T04:19:36.239Z,33.20
2022-08-16T04:20:23.565Z,30.00
2022-08-16T04:21:06.429Z,25.50
2022-08-16T04:21:47.599Z,24.90
2022-08-16T04:22:21.157Z,25.00
2022-08-16T04:23:01.748Z,26.30
2022-08-16T04:23:37.031Z,26.00
2022-08-16T04:24:10.325Z,25.80
2022-08-16T04:24:54.870Z,24.50
2022-08-16T04:25:30.472Z,22.90
2022-08-16T04:26:08.065Z,22.00
2022-08-16T04:26:50.465Z,25.60
2022-08-16T04:27:24.432Z,22.70
2022-08-16T04:27:58.308Z,23.10
2022-08-16T04:28:54.986Z,21.40
2022-08-16T04:29:43.906Z,25.00
2022-08-16T04:30:31.931Z,22.20
2022-08-16T04:31:10.744Z,22.30
2022-08-16T04:31:44.146Z,24.50
2022-08-16T04:32:17.190Z,23.30
2022-08-16T04:32:53.043Z,22.40
2022-08-16T04:33:29.106Z,22.70
2022-08-16T04:34:08.132Z,22.20
2022-08-16T04:34:42.815Z,22.50
2022-08-16T04:35:22.735Z,23.40
2022-08-16T04:35:58.346Z,21.30
2022-08-16T04:36:31.603Z,25.00
2022-08-16T04:37:06.293Z,22.70
2022-08-16T04:37:42.571Z,24.00
2022-08-16T04:38:20.977Z,24.60
2022-08-16T04:38:55.881Z,22.10
2022-08-16T04:39:45.629Z,23.10
2022-08-16T04:40:25.142Z,19.30
2022-08-16T04:40:58.967Z,21.50
2022-08-16T04:41:37.733Z,21.00
2022-08-16T04:42:14.085Z,20.30
2022-08-16T04:42:47.336Z,22.50
2022-08-16T04:43:20.804Z,20.10
2022-08-16T04:43:56.851Z,22.00
2022-08-16T04:44:32.910Z,21.70
2022-08-16T04:45:35.606Z,21.40
2022-08-16T04:46:19.762Z,20.00
2022-08-16T04:47:21.425Z,20.90
2022-08-16T04:47:56.760Z,20.40
2022-08-16T04:48:34.261Z,21.70
2022-08-16T04:49:08.380Z,20.10
2022-08-16T04:49:44.182Z,19.70
2022-08-16T04:50:23.413Z,21.10
2022-08-16T04:51:11.654Z,19.10
2022-08-16T04:51:46.116Z,19.30
2022-08-16T04:52:35.119Z,20.40
2022-08-16T04:53:09.237Z,18.80
2022-08-16T04:53:45.610Z,19.20
2022-08-16T04:54:19.795Z,20.10
2022-08-16T04:54:53.081Z,19.60
2022-08-16T04:55:37.743Z,20.20
2022-08-16T04:56:11.832Z,19.20
2022-08-16T04:56:46.326Z,20.00
2022-08-16T04:57:21.944Z,19.30
2022-08-16T04:57:57.140Z,18.80
2022-08-16T04:58:44.199Z,19.40
2022-08-16T04:59:19.582Z,21.60
2022-08-16T04:59:55.561Z,19.20
2022-08-16T05:00:34.183Z,20.40
2022-08-16T05:01:08.031Z,19.40
2022-08-16T05:01:58.905Z,20.10
2022-08-16T05:02:41.592Z,19.20
2022-08-16T05:03:16.008Z,19.00
2022-08-16T05:04:00.454Z,20.20
2022-08-16T05:04:35.081Z,19.60
2022-08-16T05:05:17.738Z,19.10
2022-08-16T05:05:58.932Z,19.40
2022-08-16T05:06:42.301Z,20.50
2022-08-16T05:07:20.396Z,26.60
2022-08-16T05:07:58.646Z,20.50
2022-08-16T05:08:34.213Z,21.30
2022-08-16T05:09:07.685Z,19.20
2022-08-16T05:09:45.035Z,19.30
2022-08-16T05:10:22.949Z,20.40
2022-08-16T05:10:59.877Z,18.10
2022-08-16T05:11:33.858Z,19.50
2022-08-16T05:12:07.440Z,19.10
2022-08-16T05:12:44.871Z,19.70
2022-08-16T05:13:19.478Z,21.90
2022-08-16T05:13:52.639Z,18.20
2022-08-16T05:14:46.069Z,18.60
2022-08-16T05:15:19.382Z,18.70
2022-08-16T05:15:54.544Z,19.50
2022-08-16T05:16:31.635Z,19.80
2022-08-16T05:17:04.914Z,21.00
2022-08-16T05:17:39.243Z,18.80
2022-08-16T05:18:15.981Z,19.30
2022-08-16T05:18:51.766Z,19.30
2022-08-16T05:19:25.931Z,19.90
2022-08-16T05:20:39.510Z,19.70
2022-08-16T05:21:09.653Z,17.90
2022-08-16T05:21:45.850Z,17.80
2022-08-16T05:22:19.834Z,18.60
2022-08-16T05:22:53.916Z,20.70
2022-08-16T05:23:31.689Z,19.80
2022-08-16T05:24:07.216Z,18.80
2022-08-16T05:24:40.618Z,20.70
2022-08-16T05:25:17.999Z,19.10
2022-08-16T05:25:51.313Z,19.70
2022-08-16T05:26:29.825Z,19.80
2022-08-16T05:27:11.563Z,19.50
2022-08-16T05:27:45.436Z,19.70
2022-08-16T05:28:20.137Z,20.60
2022-08-16T05:28:55.370Z,23.50
2022-08-16T05:30:00.693Z,19.20
2022-08-16T05:30:34.401Z,21.90
2022-08-16T05:31:09.009Z,21.50
2022-08-16T05:31:48.048Z,21.40
2022-08-16T05:32:32.553Z,19.90
2022-08-16T05:33:21.851Z,19.10
2022-08-16T05:33:55.139Z,19.10
2022-08-16T05:34:29.237Z,19.00
2022-08-16T05:35:10.970Z,20.20
2022-08-16T05:35:55.733Z,20.20
2022-08-16T05:36:33.802Z,19.60
2022-08-16T05:37:10.758Z,20.30
2022-08-16T05:37:46.307Z,19.10
2022-08-16T05:38:32.956Z,19.90
2022-08-16T05:39:12.850Z,20.70
2022-08-16T05:39:46.208Z,19.50
2022-08-16T05:40:19.486Z,19.90
2022-08-16T05:40:59.953Z,20.80
2022-08-16T05:41:44.823Z,19.70
2022-08-16T05:42:19.634Z,19.40
2022-08-16T05:42:55.555Z,19.50
2022-08-16T05:43:32.227Z,19.40
2022-08-16T05:44:22.920Z,19.30
2022-08-16T05:44:58.321Z,19.00
2022-08-16T05:45:33.077Z,18.70
2022-08-16T05:46:28.777Z,20.50
2022-08-16T05:47:04.645Z,19.30
2022-08-16T05:47:43.404Z,18.90
2022-08-16T05:48:16.883Z,20.80
2022-08-16T05:48:54.913Z,20.80
2022-08-16T05:49:39.951Z,19.20
2022-08-16T05:50:19.040Z,17.70
2022-08-16T05:50:53.319Z,19.30
2022-08-16T05:51:37.552Z,20.30
2022-08-16T05:52:13.413Z,21.00
2022-08-16T05:52:47.196Z,19.80
2022-08-16T05:53:20.768Z,20.40
2022-08-16T05:53:57.545Z,19.10
2022-08-16T05:54:31.341Z,21.00
2022-08-16T05:55:07.548Z,19.20
2022-08-16T05:55:42.464Z,20.10
2022-08-16T05:56:19.335Z,19.60
2022-08-16T05:56:54.472Z,19.50
2022-08-16T05:57:34.466Z,19.70
2022-08-16T05:58:09.183Z,19.50
2022-08-16T05:59:02.734Z,19.70
2022-08-16T05:59:39.327Z,17.20
2022-08-16T06:00:22.718Z,18.80
2022-08-16T06:00:57.097Z,19.30
2022-08-16T06:01:30.264Z,18.90
2022-08-16T06:02:11.631Z,21.00
2022-08-16T06:02:44.943Z,19.10
2022-08-16T06:03:18.164Z,19.90
2022-08-16T06:03:51.257Z,20.00
2022-08-16T06:04:35.219Z,20.10
2022-08-16T06:05:11.599Z,19.00
2022-08-16T06:05:47.817Z,19.70
2022-08-16T06:06:28.203Z,19.10
2022-08-16T06:07:07.132Z,18.80
2022-08-16T06:07:40.944Z,19.90
2022-08-16T06:08:31.736Z,19.50
2022-08-16T06:09:06.063Z,19.10
2022-08-16T06:09:43.325Z,20.20
2022-08-16T06:10:32.070Z,20.20
2022-08-16T06:11:10.358Z,20.10
2022-08-16T06:11:46.397Z,18.30
2022-08-16T06:12:27.940Z,18.70
2022-08-16T06:13:02.555Z,20.00
2022-08-16T06:13:37.802Z,19.10
2022-08-16T06:14:15.850Z,19.50
2022-08-16T06:14:51.402Z,20.20
2022-08-16T06:15:25.180Z,20.10
2022-08-16T06:15:58.852Z,21.30
2022-08-16T06:16:32.504Z,21.80
2022-08-16T06:17:06.644Z,21.00
2022-08-16T06:17:43.591Z,20.50
2022-08-16T06:18:19.469Z,20.10
2022-08-16T06:19:04.930Z,19.20
2022-08-16T06:19:41.531Z,20.30
2022-08-16T06:20:24.141Z,19.80
2022-08-16T06:21:00.073Z,19.60
2022-08-16T06:21:36.913Z,22.30
2022-08-16T06:22:10.762Z,21.50
2022-08-16T06:23:11.615Z,22.80
2022-08-16T06:23:54.078Z,20.20
2022-08-16T06:24:53.641Z,20.30
2022-08-16T06:25:35.403Z,20.40
2022-08-16T06:26:10.449Z,20.50
2022-08-16T06:26:57.479Z,20.70
2022-08-16T06:27:40.693Z,19.10
2022-08-16T06:28:16.668Z,20.20
2022-08-16T06:28:52.654Z,21.30
2022-08-16T06:29:26.280Z,19.90
2022-08-16T06:29:59.912Z,20.70
2022-08-16T06:30:33.049Z,19.80
2022-08-16T06:31:07.343Z,19.40
2022-08-16T06:31:46.779Z,20.60
2022-08-16T06:32:27.048Z,20.60
2022-08-16T06:33:02.785Z,21.00
2022-08-16T06:33:41.700Z,19.60
2022-08-16T06:34:54.236Z,21.30
2022-08-16T06:35:10.729Z,19.50
2022-08-16T06:35:44.381Z,20.60
2022-08-16T06:36:18.002Z,19.50
2022-08-16T06:36:59.357Z,20.60
2022-08-16T06:37:36.827Z,21.00
2022-08-16T06:38:33.483Z,21.20
2022-08-16T06:39:06.036Z,21.60
2022-08-16T06:39:46.787Z,21.80
2022-08-16T06:40:33.225Z,21.30
2022-08-16T06:41:12.344Z,21.80
2022-08-16T06:41:47.877Z,20.80
2022-08-16T06:42:22.056Z,22.00
2022-08-16T06:42:57.719Z,22.20
2022-08-16T06:43:32.460Z,22.50
2022-08-16T06:44:05.779Z,21.30
2022-08-16T06:44:39.707Z,21.50
2022-08-16T06:45:13.485Z,22.50
2022-08-16T06:45:48.387Z,22.80
2022-08-16T06:46:37.700Z,21.90
2022-08-16T06:47:17.042Z,22.70
2022-08-16T06:47:56.444Z,22.80
2022-08-16T06:48:32.506Z,21.90
2022-08-16T06:49:11.339Z,21.70
2022-08-16T06:49:52.607Z,22.50
2022-08-16T06:50:29.390Z,22.50
2022-08-16T06:51:05.763Z,22.20
2022-08-16T06:51:48.039Z,22.40
2022-08-16T06:52:57.649Z,22.90
2022-08-16T06:53:16.068Z,22.10
2022-08-16T06:53:53.027Z,22.70
2022-08-16T06:54:26.758Z,21.70
2022-08-16T06:54:59.923Z,21.70
2022-08-16T06:55:38.389Z,20.60
2022-08-16T06:56:13.934Z,22.50
2022-08-16T06:56:47.488Z,22.50
2022-08-16T06:57:25.883Z,20.90
2022-08-16T06:58:02.067Z,21.30
2022-08-16T06:58:42.046Z,21.50
2022-08-16T06:59:18.753Z,22.30
2022-08-16T06:59:58.107Z,21.10
2022-08-16T07:01:09.769Z,21.20
2022-08-16T07:01:53.703Z,22.10
2022-08-16T07:02:33.001Z,22.00
2022-08-16T07:03:27.183Z,26.70
2022-08-16T07:04:01.849Z,20.30
2022-08-16T07:04:37.147Z,22.40
2022-08-16T07:05:15.326Z,20.60
2022-08-16T07:05:51.374Z,20.40
2022-08-16T07:06:27.610Z,21.90
2022-08-16T07:07:01.989Z,21.20
2022-08-16T07:07:38.532Z,21.10
2022-08-16T07:08:11.857Z,19.90
2022-08-16T07:08:47.076Z,20.20
2022-08-16T07:09:21.915Z,20.00
2022-08-16T07:10:08.700Z,19.50
2022-08-16T07:10:42.248Z,21.70
2022-08-16T07:11:16.857Z,18.70
2022-08-16T07:11:52.258Z,19.40
2022-08-16T07:12:36.833Z,21.00
2022-08-16T07:13:43.767Z,18.20
2022-08-16T07:14:26.405Z,18.40
2022-08-16T07:15:01.460Z,17.60
2022-08-16T07:15:35.216Z,18.30
2022-08-16T07:16:15.482Z,18.30
2022-08-16T07:16:48.979Z,20.10
2022-08-16T07:17:23.250Z,18.30
2022-08-16T07:17:56.513Z,19.20
2022-08-16T07:18:30.007Z,18.10
2022-08-16T07:19:04.339Z,17.50
2022-08-16T07:20:03.107Z,17.40
2022-08-16T07:20:36.091Z,18.10
2022-08-16T07:21:20.738Z,17.80
2022-08-16T07:21:59.815Z,18.10
2022-08-16T07:22:52.843Z,18.50
2022-08-16T07:23:38.672Z,17.20
2022-08-16T07:24:12.694Z,17.70
2022-08-16T07:25:06.549Z,18.80
2022-08-16T07:25:40.598Z,18.10
2022-08-16T07:26:25.055Z,17.10
2022-08-16T07:27:01.009Z,16.80
2022-08-16T07:27:37.006Z,17.40
2022-08-16T07:28:20.806Z,18.70
2022-08-16T07:28:54.490Z,16.60
2022-08-16T07:29:31.701Z,19.60
2022-08-16T07:30:39.763Z,17.30
2022-08-16T07:31:03.572Z,17.60
2022-08-16T07:31:38.074Z,17.10
2022-08-16T07:32:12.146Z,16.60
2022-08-16T07:32:51.393Z,16.90
2022-08-16T07:33:52.629Z,15.80
2022-08-16T07:34:19.381Z,16.40
2022-08-16T07:35:09.615Z,16.60
2022-08-16T07:35:44.460Z,16.40
2022-08-16T07:36:22.998Z,16.20
2022-08-16T07:36:58.343Z,16.80
2022-08-16T07:37:32.611Z,16.80
2022-08-16T07:38:06.759Z,17.40
2022-08-16T07:38:41.245Z,16.90
2022-08-16T07:39:16.141Z,17.20
2022-08-16T07:39:49.454Z,16.60
2022-08-16T07:40:49.585Z,15.10
2022-08-16T07:41:19.355Z,15.30
2022-08-16T07:41:55.738Z,15.60
2022-08-16T07:42:35.132Z,16.00
2022-08-16T07:43:08.939Z,16.10
2022-08-16T07:43:43.282Z,18.30
2022-08-16T07:44:17.212Z,18.40
2022-08-16T07:44:50.960Z,20.10
2022-08-16T07:45:25.046Z,17.40
2022-08-16T07:46:01.483Z,17.40
2022-08-16T07:46:38.501Z,18.90
2022-08-16T07:47:13.387Z,18.40
2022-08-16T07:47:46.743Z,17.50
2022-08-16T07:48:24.951Z,16.00
2022-08-16T07:49:02.099Z,17.20
2022-08-16T07:49:35.996Z,16.80
2022-08-16T07:50:56.120Z,16.70
2022-08-16T07:51:21.042Z,18.00
2022-08-16T07:51:56.877Z,15.90
2022-08-16T07:52:30.174Z,17.50
2022-08-16T07:53:03.468Z,16.20
2022-08-16T07:53:43.677Z,18.40
2022-08-16T07:54:20.650Z,16.00
2022-08-16T07:54:54.444Z,15.70
2022-08-16T07:55:28.315Z,15.50
2022-08-16T07:56:19.969Z,16.10
2022-08-16T07:56:53.239Z,16.70
2022-08-16T07:57:26.637Z,17.70
2022-08-16T07:58:00.916Z,16.70
2022-08-16T07:58:37.171Z,16.30
2022-08-16T07:59:10.544Z,15.70
2022-08-16T07:59:46.194Z,16.40
2022-08-16T08:00:20.290Z,15.40
2022-08-16T08:00:59.652Z,17.80
2022-08-16T08:01:33.780Z,15.60
2022-08-16T08:02:11.946Z,15.20
2022-08-16T08:02:47.712Z,14.50
2022-08-16T08:03:25.581Z,15.10
2022-08-16T08:04:16.087Z,13.90
2022-08-16T08:04:49.979Z,14.80
2022-08-16T08:05:25.574Z,14.80
2022-08-16T08:06:10.455Z,15.40
2022-08-16T08:06:46.364Z,15.10
2022-08-16T08:07:27.550Z,30.00
2022-08-16T08:08:01.765Z,16.20
2022-08-16T08:08:51.266Z,14.90
2022-08-16T08:09:26.804Z,14.30
2022-08-16T08:10:00.754Z,15.00
2022-08-16T08:10:34.023Z,12.80
2022-08-16T08:11:08.998Z,12.60
2022-08-16T08:12:01.017Z,13.80
2022-08-16T08:12:36.217Z,13.50
2022-08-16T08:13:09.592Z,13.50
2022-08-16T08:13:43.915Z,13.60
2022-08-16T08:14:29.335Z,13.50
2022-08-16T08:15:09.634Z,15.10
2022-08-16T08:15:52.514Z,12.80
2022-08-16T08:16:30.529Z,18.90
2022-08-16T08:17:08.582Z,13.60
2022-08-16T08:17:43.998Z,13.60
2022-08-16T08:18:30.594Z,15.50
2022-08-16T08:19:04.792Z,19.80
2022-08-16T08:19:40.368Z,13.80
2022-08-16T08:20:20.830Z,13.00
2022-08-16T08:20:59.954Z,17.00
2022-08-16T08:21:58.985Z,13.10
2022-08-16T08:22:28.526Z,13.10
2022-08-16T08:23:03.193Z,12.70
2022-08-16T08:23:37.415Z,17.70
2022-08-16T08:24:16.244Z,13.80
2022-08-16T08:24:50.267Z,12.70
2022-08-16T08:25:26.730Z,15.30
2022-08-16T08:26:19.871Z,12.80
2022-08-16T08:26:55.099Z,16.30
2022-08-16T08:27:32.653Z,15.80
2022-08-16T08:28:06.927Z,13.10